createdAt,value
2023-02-13T00:00:29.763Z,34.63
2023-02-13T00:02:56.335Z,37.05
2023-02-13T00:05:22.870Z,38.55
2023-02-13T00:07:49.497Z,31.73
2023-02-13T00:10:16.531Z,36.08
2023-02-13T00:12:45.730Z,32.08
2023-02-13T00:16:05.671Z,34.10
2023-02-13T00:18:46.229Z,29.90
2023-02-13T00:21:15.449Z,32.83
2023-02-13T00:23:41.992Z,28.75
2023-02-13T00:26:13.840Z,29.75
2023-02-13T00:28:40.780Z,33.03
2023-02-13T00:31:14.092Z,32.38
2023-02-13T00:36:17.517Z,33.05
2023-02-13T00:38:44.884Z,37.53
2023-02-13T00:41:12.003Z,36.22
2023-02-13T00:43:39.107Z,37.28
2023-02-13T00:46:17.013Z,36.40
2023-02-13T00:49:14.856Z,33.40
2023-02-13T00:52:12.486Z,35.80
2023-02-13T00:54:54.515Z,34.05
2023-02-13T00:57:21.091Z,31.17
2023-02-13T00:59:47.694Z,31.73
2023-02-13T01:02:14.336Z,30.77
2023-02-13T01:04:40.950Z,30.42
2023-02-13T01:07:07.536Z,28.30
2023-02-13T01:09:34.120Z,27.70
2023-02-13T01:12:00.774Z,29.17
2023-02-13T01:14:27.314Z,30.45
2023-02-13T01:16:54.016Z,26.95
2023-02-13T01:19:59.279Z,33.08
2023-02-13T01:22:45.902Z,27.95
2023-02-13T01:25:12.452Z,28.90
2023-02-13T01:27:39.003Z,30.92
2023-02-13T01:30:11.730Z,31.80
2023-02-13T01:32:38.329Z,26.30
2023-02-13T01:35:05.237Z,28.23
2023-02-13T01:37:51.174Z,29.50
2023-02-13T01:40:17.839Z,26.37
2023-02-13T01:42:44.853Z,27.92
2023-02-13T01:45:28.324Z,29.75
2023-02-13T01:48:09.450Z,26.83
2023-02-13T01:51:45.344Z,30.50
2023-02-13T01:54:19.383Z,29.15
2023-02-13T01:56:53.773Z,28.42
2023-02-13T01:59:26.148Z,26.45
2023-02-13T02:01:54.335Z,27.25
2023-02-13T02:04:39.763Z,27.37
2023-02-13T02:09:44.264Z,25.62
2023-02-13T02:12:10.746Z,26.42
2023-02-13T02:14:38.349Z,23.77
2023-02-13T02:17:05.027Z,24.77
2023-02-13T02:19:56.336Z,27.67
2023-02-13T02:26:44.087Z,24.35
2023-02-13T02:29:21.566Z,24.55
2023-02-13T02:32:09.997Z,24.02
2023-02-13T02:34:48.631Z,24.55
2023-02-13T02:37:58.174Z,29.63
2023-02-13T02:41:05.616Z,36.72
2023-02-13T02:43:47.754Z,39.10
2023-02-13T02:46:28.266Z,38.30
2023-02-13T02:49:26.700Z,38.47
2023-02-13T02:52:47.535Z,30.25
2023-02-13T02:55:32.720Z,32.78
2023-02-13T02:59:14.883Z,30.15
2023-02-13T03:02:02.456Z,28.92
2023-02-13T03:08:44.970Z,23.05
2023-02-13T03:11:46.642Z,22.20
2023-02-13T03:14:16.708Z,26.25
2023-02-13T03:17:02.211Z,25.27
2023-02-13T03:29:20.277Z,26.05
2023-02-13T03:32:30.843Z,23.92
2023-02-13T03:38:59.618Z,22.55
2023-02-13T03:41:41.849Z,23.95
2023-02-13T03:44:30.841Z,25.90
2023-02-13T03:47:00.850Z,27.62
2023-02-13T03:49:54.993Z,25.15
2023-02-13T03:57:54.763Z,47.10
2023-02-13T04:00:22.217Z,55.88
2023-02-13T04:06:52.170Z,33.83
2023-02-13T04:09:18.719Z,35.55
2023-02-13T04:12:03.251Z,34.53
2023-02-13T04:14:47.505Z,38.38
2023-02-13T04:17:21.421Z,34.55
2023-02-13T04:19:48.141Z,31.00
2023-02-13T04:22:21.233Z,31.15
2023-02-13T04:27:16.542Z,27.67
2023-02-13T04:29:43.296Z,32.00
2023-02-13T04:32:36.565Z,27.92
2023-02-13T04:35:18.096Z,30.88
2023-02-13T04:37:45.130Z,29.75
2023-02-13T04:40:14.644Z,27.52
2023-02-13T04:42:41.220Z,29.83
2023-02-13T04:45:08.205Z,30.27
2023-02-13T04:47:34.851Z,34.05
2023-02-13T04:50:01.404Z,28.62
2023-02-13T04:52:27.983Z,27.83
2023-02-13T04:54:54.500Z,29.40
2023-02-13T04:57:21.068Z,25.98
2023-02-13T04:59:47.649Z,27.50
2023-02-13T05:02:14.162Z,32.92
2023-02-13T05:04:40.785Z,35.25
2023-02-13T05:07:07.354Z,48.78
2023-02-13T05:09:34.004Z,87.50
2023-02-13T05:12:00.602Z,103.82
2023-02-13T05:14:27.162Z,86.80
2023-02-13T05:16:53.762Z,71.57
2023-02-13T05:19:20.368Z,53.47
2023-02-13T05:25:28.755Z,44.10
2023-02-13T05:27:55.341Z,49.45
2023-02-13T05:30:22.069Z,42.90
2023-02-13T05:32:50.865Z,39.78
2023-02-13T05:35:18.596Z,33.25
2023-02-13T05:37:45.610Z,33.20
2023-02-13T05:40:13.485Z,30.92
2023-02-13T05:42:43.505Z,28.67
2023-02-13T05:45:10.710Z,32.50
2023-02-13T05:47:37.301Z,31.30
2023-02-13T05:50:04.027Z,32.30
2023-02-13T05:52:30.607Z,35.92
2023-02-13T05:57:34.711Z,37.10
2023-02-13T06:00:01.502Z,37.13
2023-02-13T06:02:28.161Z,33.75
2023-02-13T06:08:17.565Z,34.95
2023-02-13T06:10:59.930Z,32.53
2023-02-13T06:13:26.726Z,32.88
2023-02-13T06:15:53.644Z,35.58
2023-02-13T06:18:20.226Z,34.33
2023-02-13T06:20:46.957Z,36.08
2023-02-13T06:23:13.937Z,33.50
2023-02-13T06:25:40.696Z,33.92
2023-02-13T06:28:07.423Z,37.35
2023-02-13T06:30:34.206Z,35.22
2023-02-13T06:33:01.022Z,35.20
2023-02-13T06:35:28.210Z,28.90
2023-02-13T06:37:54.847Z,33.17
2023-02-13T06:40:21.539Z,30.83
2023-02-13T06:42:48.275Z,28.62
2023-02-13T06:45:14.981Z,31.27
2023-02-13T06:47:47.211Z,30.85
2023-02-13T06:50:16.068Z,39.40
2023-02-13T06:52:47.967Z,31.85
2023-02-13T06:55:30.005Z,31.85
2023-02-13T06:57:56.640Z,31.50
2023-02-13T07:00:26.077Z,27.40
2023-02-13T07:02:52.846Z,31.08
2023-02-13T07:05:32.197Z,30.60
2023-02-13T07:08:45.270Z,29.02
2023-02-13T07:11:24.265Z,28.38
2023-02-13T07:13:50.945Z,27.25
2023-02-13T07:16:17.657Z,26.85
2023-02-13T07:18:44.259Z,25.17
2023-02-13T07:21:11.256Z,25.20
2023-02-13T07:23:37.941Z,28.45
2023-02-13T07:26:04.721Z,27.95
2023-02-13T07:28:31.724Z,27.33
2023-02-13T07:31:03.431Z,28.25
2023-02-13T07:33:30.046Z,30.02
2023-02-13T07:35:56.612Z,31.10
2023-02-13T07:38:23.197Z,30.25
2023-02-13T07:41:17.394Z,28.45
2023-02-13T07:44:08.486Z,29.33
2023-02-13T07:46:35.140Z,27.52
2023-02-13T07:49:01.666Z,28.58
2023-02-13T07:51:29.164Z,27.48
2023-02-13T07:53:57.322Z,31.48
2023-02-13T07:56:24.243Z,30.02
2023-02-13T07:58:50.833Z,28.38
2023-02-13T08:01:17.643Z,31.67
2023-02-13T08:03:50.761Z,28.10
2023-02-13T08:06:18.703Z,27.33
2023-02-13T08:08:45.352Z,30.00
2023-02-13T08:11:49.522Z,27.65
2023-02-13T08:16:51.972Z,29.98
2023-02-13T08:19:18.886Z,28.40
2023-02-13T08:21:45.796Z,26.05
2023-02-13T08:24:13.512Z,24.65
2023-02-13T08:26:40.314Z,24.75
2023-02-13T08:29:19.028Z,25.48
2023-02-13T08:32:07.690Z,25.62
2023-02-13T08:34:52.742Z,22.42
2023-02-13T08:37:19.343Z,24.05
2023-02-13T08:39:55.236Z,24.23
2023-02-13T08:42:21.790Z,21.83
2023-02-13T08:45:03.589Z,25.00
2023-02-13T08:47:30.330Z,26.35
2023-02-13T08:49:56.879Z,27.00
2023-02-13T08:52:23.511Z,27.23
2023-02-13T08:54:50.065Z,24.98
2023-02-13T08:57:16.612Z,24.95
2023-02-13T08:59:48.084Z,25.42
2023-02-13T09:02:14.956Z,25.85
2023-02-13T09:04:41.505Z,24.98
2023-02-13T09:07:08.090Z,27.10
2023-02-13T09:10:12.493Z,31.45
2023-02-13T09:13:04.181Z,26.10
2023-02-13T09:15:31.632Z,26.80
2023-02-13T09:17:58.323Z,26.48
2023-02-13T09:20:25.168Z,24.92
2023-02-13T09:22:51.777Z,24.48
2023-02-13T09:25:20.260Z,27.95
2023-02-13T09:27:46.894Z,26.62
2023-02-13T09:30:19.137Z,29.23
2023-02-13T09:32:45.679Z,26.10
2023-02-13T09:35:14.986Z,26.65
2023-02-13T09:37:41.550Z,29.90
2023-02-13T09:40:29.665Z,26.80
2023-02-13T09:43:20.370Z,25.20
2023-02-13T09:45:56.037Z,29.02
2023-02-13T09:48:31.215Z,27.90
2023-02-13T09:50:59.514Z,25.60
2023-02-13T09:53:29.426Z,28.27
2023-02-13T09:59:42.394Z,28.33
2023-02-13T10:02:59.525Z,24.33
2023-02-13T10:06:06.725Z,26.40
2023-02-13T10:08:45.903Z,25.90
2023-02-13T10:11:27.003Z,34.10
2023-02-13T10:14:32.836Z,30.10
2023-02-13T10:17:14.496Z,28.52
2023-02-13T10:20:02.503Z,26.80
2023-02-13T10:22:42.208Z,25.62
2023-02-13T10:25:16.155Z,29.80
2023-02-13T10:27:50.210Z,30.48
2023-02-13T10:30:24.363Z,30.12
2023-02-13T10:33:21.128Z,28.33
2023-02-13T10:35:59.761Z,33.10
2023-02-13T10:38:31.256Z,29.83
2023-02-13T10:41:16.291Z,31.62
2023-02-13T10:44:40.065Z,26.00
2023-02-13T10:47:39.617Z,33.38
2023-02-13T10:50:26.955Z,28.55
2023-02-13T10:53:15.110Z,26.10
2023-02-13T10:56:28.188Z,29.48
2023-02-13T10:59:28.212Z,26.30
2023-02-13T11:02:03.806Z,31.98
2023-02-13T11:04:30.960Z,28.25
2023-02-13T11:07:06.055Z,29.20
2023-02-13T11:09:40.095Z,32.13
2023-02-13T11:23:57.679Z,27.17
2023-02-13T11:26:53.867Z,30.77
2023-02-13T11:29:59.846Z,30.00
2023-02-13T11:32:29.573Z,30.75
2023-02-13T11:34:56.823Z,32.38
2023-02-13T11:37:28.039Z,28.70
2023-02-13T11:39:57.710Z,31.50
2023-02-13T11:42:29.570Z,28.38
2023-02-13T11:45:01.607Z,29.73
2023-02-13T11:47:46.239Z,29.37
2023-02-13T11:50:42.532Z,31.70
2023-02-13T11:53:21.426Z,30.98
2023-02-13T11:56:10.190Z,32.38
2023-02-13T11:58:37.468Z,28.83
2023-02-13T12:01:11.534Z,29.50
2023-02-13T12:03:38.899Z,30.40
2023-02-13T12:06:13.186Z,34.67
2023-02-13T12:08:45.851Z,32.10
2023-02-13T12:11:37.004Z,32.97
2023-02-13T12:14:40.970Z,28.52
2023-02-13T12:17:25.548Z,32.15
2023-02-13T12:19:57.681Z,28.55
2023-02-13T12:22:47.368Z,27.42
2023-02-13T12:25:54.758Z,29.48
2023-02-13T12:28:55.323Z,29.15
2023-02-13T12:31:44.267Z,30.12
2023-02-13T12:34:33.662Z,26.08
2023-02-13T12:37:11.886Z,25.67
2023-02-13T12:39:47.528Z,26.42
2023-02-13T12:57:03.078Z,19.20
2023-02-13T13:00:22.738Z,11.73
2023-02-13T13:03:29.880Z,10.45
2023-02-13T13:06:31.883Z,10.00
2023-02-13T13:09:07.868Z,9.90
2023-02-13T13:12:01.807Z,7.85
2023-02-13T13:15:09.146Z,10.18
2023-02-13T13:18:02.156Z,9.30
2023-02-13T13:20:52.265Z,10.55
2023-02-13T13:23:30.697Z,11.70
2023-02-13T13:26:26.428Z,8.55
2023-02-13T13:28:57.029Z,14.43
2023-02-13T13:31:26.797Z,7.00
2023-02-13T13:33:58.472Z,10.85
2023-02-13T13:36:33.991Z,9.02
2023-02-13T13:39:15.623Z,11.57
2023-02-13T13:41:47.054Z,10.48
2023-02-13T13:44:20.638Z,9.82
2023-02-13T13:46:59.557Z,8.15
2023-02-13T13:49:46.660Z,10.13
2023-02-13T13:52:39.842Z,8.70
2023-02-13T13:55:26.814Z,10.70
2023-02-13T13:58:00.758Z,10.68
2023-02-13T14:00:30.349Z,9.68
2023-02-13T14:03:20.518Z,10.80
2023-02-13T14:06:06.795Z,8.30
2023-02-13T14:08:45.466Z,9.88
2023-02-13T14:11:35.411Z,11.60
2023-02-13T14:14:22.696Z,10.00
2023-02-13T14:16:49.294Z,9.20
2023-02-13T14:19:40.605Z,12.55
2023-02-13T14:22:19.503Z,10.63
2023-02-13T14:25:07.303Z,9.82
2023-02-13T14:27:40.741Z,11.43
2023-02-13T14:30:27.046Z,12.77
2023-02-13T14:32:54.324Z,12.37
2023-02-13T14:35:27.603Z,10.93
2023-02-13T14:37:59.509Z,11.30
2023-02-13T14:40:43.471Z,12.63
2023-02-13T14:43:27.104Z,11.85
2023-02-13T14:46:14.463Z,12.93
2023-02-13T14:48:48.708Z,12.37
2023-02-13T14:51:28.885Z,11.80
2023-02-13T14:54:20.391Z,11.00
2023-02-13T14:56:52.294Z,12.90
2023-02-13T14:59:29.235Z,14.23
2023-02-13T15:02:00.880Z,18.75
2023-02-13T15:04:34.885Z,12.82
2023-02-13T15:07:06.345Z,15.18
2023-02-13T15:09:40.070Z,14.95
2023-02-13T15:12:33.569Z,16.17
2023-02-13T15:17:40.127Z,14.80
2023-02-13T15:20:12.466Z,16.25
2023-02-13T15:22:45.295Z,16.90
2023-02-13T15:25:36.945Z,15.57
2023-02-13T15:28:07.023Z,13.75
2023-02-13T15:30:38.325Z,14.25
2023-02-13T15:33:17.844Z,16.00
2023-02-13T15:35:45.080Z,14.18
2023-02-13T15:38:39.316Z,17.05
2023-02-13T15:41:26.621Z,14.23
2023-02-13T15:43:57.852Z,15.50
2023-02-13T15:46:33.844Z,14.48
2023-02-13T15:49:32.296Z,14.32
2023-02-13T15:52:06.762Z,13.77
2023-02-13T15:54:35.110Z,14.10
2023-02-13T15:57:24.626Z,13.10
2023-02-13T15:59:52.501Z,14.75
2023-02-13T16:02:31.843Z,13.13
2023-02-13T16:05:01.242Z,13.20
2023-02-13T16:07:27.867Z,14.50
2023-02-13T16:10:18.762Z,12.40
2023-02-13T16:12:48.495Z,13.25
2023-02-13T16:15:21.326Z,11.85
2023-02-13T16:17:49.018Z,15.98
2023-02-13T16:20:36.683Z,13.10
2023-02-13T16:23:18.258Z,13.95
2023-02-13T16:25:47.685Z,13.70
2023-02-13T16:28:21.500Z,10.65
2023-02-13T16:31:03.064Z,12.82
2023-02-13T16:33:30.767Z,12.43
2023-02-13T16:36:29.024Z,12.18
2023-02-13T16:38:55.673Z,10.35
2023-02-13T16:41:22.271Z,12.50
2023-02-13T16:43:53.627Z,13.55
2023-02-13T16:46:23.097Z,11.45
2023-02-13T16:49:01.357Z,14.10
2023-02-13T16:51:40.066Z,14.18
2023-02-13T16:54:15.757Z,13.82
2023-02-13T16:56:42.245Z,13.85
2023-02-13T16:59:35.067Z,13.85
2023-02-13T17:02:16.687Z,15.95
2023-02-13T17:05:04.718Z,15.25
2023-02-13T17:07:35.971Z,14.18
2023-02-13T17:10:17.325Z,17.92
2023-02-13T17:12:45.673Z,20.00
2023-02-13T17:15:14.543Z,15.95
2023-02-13T17:17:41.298Z,18.20
2023-02-13T17:20:17.571Z,14.43
2023-02-13T17:22:46.407Z,15.25
2023-02-13T17:25:21.825Z,10.98
2023-02-13T17:27:50.251Z,12.32
2023-02-13T17:30:44.178Z,12.60
2023-02-13T17:33:15.198Z,12.60
2023-02-13T17:35:41.788Z,13.07
2023-02-13T17:38:10.072Z,12.88
2023-02-13T17:40:37.394Z,13.65
2023-02-13T17:43:04.222Z,13.95
2023-02-13T17:45:33.038Z,15.05
2023-02-13T17:47:59.661Z,16.42
2023-02-13T17:50:28.301Z,17.15
2023-02-13T17:52:55.498Z,19.45
2023-02-13T17:55:27.210Z,19.80
2023-02-13T17:57:58.499Z,20.37
2023-02-13T18:00:29.125Z,19.80
2023-02-13T18:02:56.484Z,18.05
2023-02-13T18:05:23.052Z,18.42
2023-02-13T18:07:49.725Z,21.85
2023-02-13T18:10:25.478Z,23.65
2023-02-13T18:12:53.698Z,22.90
2023-02-13T18:15:21.155Z,25.50
2023-02-13T18:17:48.245Z,28.35
2023-02-13T18:20:23.064Z,33.33
2023-02-13T18:22:52.477Z,32.53
2023-02-13T18:25:20.250Z,28.62
2023-02-13T18:27:47.345Z,33.70
2023-02-13T18:30:16.428Z,37.38
2023-02-13T18:32:43.129Z,50.40
2023-02-13T18:35:09.907Z,33.50
2023-02-13T18:37:36.645Z,36.53
2023-02-13T18:40:03.450Z,37.40
2023-02-13T18:42:29.997Z,33.50
2023-02-13T18:44:56.555Z,40.17
2023-02-13T18:47:23.089Z,35.90
2023-02-13T18:49:49.842Z,40.95
2023-02-13T18:52:16.442Z,54.05
2023-02-13T18:54:43.079Z,45.90
2023-02-13T18:57:09.863Z,40.83
2023-02-13T18:59:37.926Z,39.58
2023-02-13T19:02:04.525Z,41.13
2023-02-13T19:04:31.667Z,36.15
2023-02-13T19:06:58.402Z,32.55
2023-02-13T19:09:25.026Z,36.15
2023-02-13T19:11:57.284Z,35.65
2023-02-13T19:15:07.372Z,35.65
2023-02-13T19:17:57.025Z,35.70
2023-02-13T19:20:24.451Z,35.13
2023-02-13T19:22:50.973Z,35.45
2023-02-13T19:25:18.969Z,34.17
2023-02-13T19:27:45.498Z,35.08
2023-02-13T19:30:12.580Z,36.50
2023-02-13T19:32:39.270Z,36.17
2023-02-13T19:35:06.360Z,34.85
2023-02-13T19:37:42.957Z,38.63
2023-02-13T19:40:11.334Z,34.08
2023-02-13T19:42:40.045Z,34.97
2023-02-13T19:45:07.144Z,33.03
2023-02-13T19:47:34.051Z,35.10
2023-02-13T19:50:01.964Z,34.05
2023-02-13T19:52:28.570Z,32.53
2023-02-13T19:54:55.425Z,32.65
2023-02-13T19:57:21.995Z,34.33
2023-02-13T19:59:48.711Z,31.55
2023-02-13T20:02:15.792Z,33.63
2023-02-13T20:04:42.471Z,32.38
2023-02-13T20:07:09.033Z,34.92
2023-02-13T20:09:37.381Z,36.35
2023-02-13T20:12:07.199Z,30.15
2023-02-13T20:14:34.352Z,31.20
2023-02-13T20:17:04.278Z,30.80
2023-02-13T20:19:31.545Z,30.02
2023-02-13T20:21:58.204Z,28.12
2023-02-13T20:24:24.845Z,29.17
2023-02-13T20:26:51.528Z,29.95
2023-02-13T20:29:18.176Z,32.08
2023-02-13T20:31:44.869Z,28.50
2023-02-13T20:34:11.917Z,31.85
2023-02-13T20:36:38.485Z,29.23
2023-02-13T20:39:06.729Z,30.60
2023-02-13T20:41:38.368Z,30.58
2023-02-13T20:44:08.474Z,28.05
2023-02-13T20:46:37.369Z,27.75
2023-02-13T20:49:04.018Z,27.25
2023-02-13T20:51:30.695Z,24.15
2023-02-13T20:53:57.814Z,27.33
2023-02-13T20:56:25.436Z,26.10
2023-02-13T20:58:54.926Z,25.70
2023-02-13T21:01:24.154Z,23.23
2023-02-13T21:03:54.572Z,20.83
2023-02-13T21:06:23.240Z,19.55
2023-02-13T21:08:50.271Z,21.58
2023-02-13T21:11:17.445Z,19.40
2023-02-13T21:13:44.489Z,18.08
2023-02-13T21:16:23.189Z,20.35
2023-02-13T21:18:52.660Z,17.35
2023-02-13T21:21:20.698Z,17.30
2023-02-13T21:23:47.874Z,16.30
2023-02-13T21:26:16.440Z,16.52
2023-02-13T21:28:48.508Z,21.05
2023-02-13T21:31:39.030Z,20.20
2023-02-13T21:34:20.960Z,16.58
2023-02-13T21:37:18.460Z,17.27
2023-02-13T21:39:45.011Z,16.10
2023-02-13T21:42:11.579Z,16.25
2023-02-13T21:47:20.136Z,16.83
2023-02-13T21:49:48.082Z,18.75
2023-02-13T21:52:39.693Z,17.67
2023-02-13T21:55:08.768Z,15.27
2023-02-13T21:57:35.988Z,17.17
2023-02-13T22:00:04.171Z,16.08
2023-02-13T22:09:27.672Z,22.08
2023-02-13T22:11:55.074Z,17.58
2023-02-13T22:14:22.385Z,21.05
2023-02-13T22:16:50.912Z,17.98
2023-02-13T22:19:18.042Z,20.60
2023-02-13T22:22:06.186Z,21.42
2023-02-13T22:24:35.217Z,16.98
2023-02-13T22:27:03.111Z,19.15
2023-02-13T22:29:29.676Z,19.33
2023-02-13T22:31:56.381Z,16.98
2023-02-13T22:34:53.982Z,17.75
2023-02-13T22:37:35.101Z,18.95
2023-02-13T22:40:01.878Z,18.42
2023-02-13T22:42:28.480Z,17.12
2023-02-13T22:44:55.082Z,22.02
2023-02-13T22:47:21.660Z,19.23
2023-02-13T22:49:48.244Z,21.45
2023-02-13T23:25:19.035Z,18.30
2023-02-13T23:27:45.885Z,18.08
2023-02-13T23:30:14.203Z,17.62
2023-02-13T23:32:40.926Z,19.02
2023-02-13T23:35:09.432Z,18.20
2023-02-13T23:53:14.072Z,16.25
2023-02-13T23:55:40.702Z,18.90
2023-02-13T23:58:07.674Z,17.95
